sensor_id;sensor_type;location;lat;lon;timestamp;pressure;altitude;pressure_sealevel;temperature;humidity
57847;BME280;43675;50.030;21.952;2023-04-29T00:01:00;98724.05;;;4.06;60.06
57847;BME280;43675;50.030;21.952;2023-04-29T00:03:26;98723.23;;;4.01;60.44
57847;BME280;43675;50.030;21.952;2023-04-29T00:05:52;98723.70;;;3.96;60.68
57847;BME280;43675;50.030;21.952;2023-04-29T00:08:19;98722.42;;;3.92;60.66
57847;BME280;43675;50.030;21.952;2023-04-29T00:10:45;98722.47;;;3.89;60.90
57847;BME280;43675;50.030;21.952;2023-04-29T00:13:12;98723.27;;;3.86;60.98
57847;BME280;43675;50.030;21.952;2023-04-29T00:15:40;98724.84;;;3.83;61.12
57847;BME280;43675;50.030;21.952;2023-04-29T00:18:06;98721.84;;;3.80;61.31
57847;BME280;43675;50.030;21.952;2023-04-29T00:20:33;98722.70;;;3.77;61.54
57847;BME280;43675;50.030;21.952;2023-04-29T00:23:00;98721.45;;;3.74;61.67
57847;BME280;43675;50.030;21.952;2023-04-29T00:25:26;98719.14;;;3.71;61.60
57847;BME280;43675;50.030;21.952;2023-04-29T00:27:53;98717.95;;;3.69;61.90
57847;BME280;43675;50.030;21.952;2023-04-29T00:30:19;98716.05;;;3.67;61.56
57847;BME280;43675;50.030;21.952;2023-04-29T00:32:46;98716.93;;;3.65;61.72
57847;BME280;43675;50.030;21.952;2023-04-29T00:35:12;98715.34;;;3.64;61.80
57847;BME280;43675;50.030;21.952;2023-04-29T00:37:39;98715.27;;;3.63;62.00
57847;BME280;43675;50.030;21.952;2023-04-29T00:40:06;98714.52;;;3.60;61.92
57847;BME280;43675;50.030;21.952;2023-04-29T00:42:33;98707.59;;;3.59;62.27
57847;BME280;43675;50.030;21.952;2023-04-29T00:44:59;98708.88;;;3.58;62.31
57847;BME280;43675;50.030;21.952;2023-04-29T00:47:26;98704.14;;;3.58;62.40
57847;BME280;43675;50.030;21.952;2023-04-29T00:49:52;98705.63;;;3.59;62.51
57847;BME280;43675;50.030;21.952;2023-04-29T00:52:19;98702.24;;;3.61;62.75
57847;BME280;43675;50.030;21.952;2023-04-29T00:54:45;98697.56;;;3.63;62.61
57847;BME280;43675;50.030;21.952;2023-04-29T00:57:13;98698.14;;;3.66;62.74
57847;BME280;43675;50.030;21.952;2023-04-29T00:59:40;98697.90;;;3.69;62.49
57847;BME280;43675;50.030;21.952;2023-04-29T01:02:06;98700.21;;;3.74;62.86
57847;BME280;43675;50.030;21.952;2023-04-29T01:04:33;98701.23;;;3.77;62.47
57847;BME280;43675;50.030;21.952;2023-04-29T01:10:32;98699.35;;;3.88;62.36
57847;BME280;43675;50.030;21.952;2023-04-29T01:13:04;98698.65;;;3.96;62.43
57847;BME280;43675;50.030;21.952;2023-04-29T01:15:40;98700.59;;;4.02;62.20
57847;BME280;43675;50.030;21.952;2023-04-29T01:18:14;98693.03;;;4.05;62.29
57847;BME280;43675;50.030;21.952;2023-04-29T01:20:43;98692.16;;;4.08;62.24
57847;BME280;43675;50.030;21.952;2023-04-29T01:23:09;98692.05;;;4.10;62.50
57847;BME280;43675;50.030;21.952;2023-04-29T01:25:36;98692.80;;;4.11;62.28
57847;BME280;43675;50.030;21.952;2023-04-29T01:28:20;98693.24;;;4.12;62.35
57847;BME280;43675;50.030;21.952;2023-04-29T01:30:54;98689.11;;;4.12;62.26
57847;BME280;43675;50.030;21.952;2023-04-29T01:33:35;98688.76;;;4.14;62.27
57847;BME280;43675;50.030;21.952;2023-04-29T01:39:26;98685.43;;;4.19;62.19
57847;BME280;43675;50.030;21.952;2023-04-29T01:42:23;98689.10;;;4.20;62.30
57847;BME280;43675;50.030;21.952;2023-04-29T01:44:54;98687.56;;;4.23;62.19
57847;BME280;43675;50.030;21.952;2023-04-29T01:47:21;98684.52;;;4.25;61.95
57847;BME280;43675;50.030;21.952;2023-04-29T01:49:48;98684.14;;;4.27;62.26
57847;BME280;43675;50.030;21.952;2023-04-29T01:52:15;98683.02;;;4.28;62.17
57847;BME280;43675;50.030;21.952;2023-04-29T01:54:41;98676.42;;;4.32;62.31
57847;BME280;43675;50.030;21.952;2023-04-29T01:57:08;98679.29;;;4.37;62.38
57847;BME280;43675;50.030;21.952;2023-04-29T01:59:34;98674.73;;;4.41;62.31
57847;BME280;43675;50.030;21.952;2023-04-29T02:02:01;98676.66;;;4.46;62.13
57847;BME280;43675;50.030;21.952;2023-04-29T02:04:27;98677.27;;;4.51;62.33
57847;BME280;43675;50.030;21.952;2023-04-29T02:06:54;98670.70;;;4.55;62.14
57847;BME280;43675;50.030;21.952;2023-04-29T02:09:20;98670.34;;;4.60;62.10
57847;BME280;43675;50.030;21.952;2023-04-29T02:11:47;98671.65;;;4.64;62.13
57847;BME280;43675;50.030;21.952;2023-04-29T02:14:13;98668.59;;;4.68;61.83
57847;BME280;43675;50.030;21.952;2023-04-29T02:16:43;98666.80;;;4.69;61.72
57847;BME280;43675;50.030;21.952;2023-04-29T02:19:10;98671.45;;;4.72;61.90
57847;BME280;43675;50.030;21.952;2023-04-29T02:21:37;98671.45;;;4.73;61.86
57847;BME280;43675;50.030;21.952;2023-04-29T02:24:03;98668.27;;;4.72;61.61
57847;BME280;43675;50.030;21.952;2023-04-29T02:26:30;98668.30;;;4.71;61.68
57847;BME280;43675;50.030;21.952;2023-04-29T02:28:56;98668.13;;;4.70;61.97
57847;BME280;43675;50.030;21.952;2023-04-29T02:31:23;98670.35;;;4.69;61.79
57847;BME280;43675;50.030;21.952;2023-04-29T02:33:49;98670.33;;;4.68;61.82
57847;BME280;43675;50.030;21.952;2023-04-29T02:36:16;98669.25;;;4.68;62.03
57847;BME280;43675;50.030;21.952;2023-04-29T02:38:43;98664.76;;;4.68;61.75
57847;BME280;43675;50.030;21.952;2023-04-29T02:41:09;98670.14;;;4.69;62.13
57847;BME280;43675;50.030;21.952;2023-04-29T02:43:36;98667.74;;;4.70;61.89
57847;BME280;43675;50.030;21.952;2023-04-29T02:46:02;98665.33;;;4.73;62.06
57847;BME280;43675;50.030;21.952;2023-04-29T02:48:29;98663.48;;;4.75;61.92
57847;BME280;43675;50.030;21.952;2023-04-29T02:50:55;98663.15;;;4.76;62.02
57847;BME280;43675;50.030;21.952;2023-04-29T02:53:22;98662.84;;;4.77;61.95
57847;BME280;43675;50.030;21.952;2023-04-29T02:55:48;98659.91;;;4.78;62.11
57847;BME280;43675;50.030;21.952;2023-04-29T02:58:15;98661.07;;;4.79;61.90
57847;BME280;43675;50.030;21.952;2023-04-29T03:00:41;98656.90;;;4.80;61.92
57847;BME280;43675;50.030;21.952;2023-04-29T03:03:08;98657.42;;;4.81;62.15
57847;BME280;43675;50.030;21.952;2023-04-29T03:05:35;98657.50;;;4.84;62.29
57847;BME280;43675;50.030;21.952;2023-04-29T03:08:02;98654.45;;;4.84;61.96
57847;BME280;43675;50.030;21.952;2023-04-29T03:10:28;98653.20;;;4.86;61.97
57847;BME280;43675;50.030;21.952;2023-04-29T03:12:55;98647.61;;;4.87;62.08
57847;BME280;43675;50.030;21.952;2023-04-29T03:15:21;98642.38;;;4.87;61.93
57847;BME280;43675;50.030;21.952;2023-04-29T03:17:48;98643.15;;;4.88;61.74
57847;BME280;43675;50.030;21.952;2023-04-29T03:20:14;98644.96;;;4.89;61.97
57847;BME280;43675;50.030;21.952;2023-04-29T03:22:41;98640.88;;;4.90;61.96
57847;BME280;43675;50.030;21.952;2023-04-29T03:25:07;98638.69;;;4.90;62.01
57847;BME280;43675;50.030;21.952;2023-04-29T03:27:34;98637.96;;;4.92;62.12
57847;BME280;43675;50.030;21.952;2023-04-29T03:30:01;98637.78;;;4.93;62.08
57847;BME280;43675;50.030;21.952;2023-04-29T03:32:27;98636.81;;;4.94;62.12
57847;BME280;43675;50.030;21.952;2023-04-29T03:34:54;98638.20;;;4.94;62.14
57847;BME280;43675;50.030;21.952;2023-04-29T03:37:20;98641.98;;;4.94;62.01
57847;BME280;43675;50.030;21.952;2023-04-29T03:39:47;98644.89;;;4.93;61.91
57847;BME280;43675;50.030;21.952;2023-04-29T03:42:13;98644.04;;;4.93;61.99
57847;BME280;43675;50.030;21.952;2023-04-29T03:44:40;98644.54;;;4.91;62.02
57847;BME280;43675;50.030;21.952;2023-04-29T03:47:06;98640.40;;;4.90;62.14
57847;BME280;43675;50.030;21.952;2023-04-29T03:49:33;98645.20;;;4.89;62.42
57847;BME280;43675;50.030;21.952;2023-04-29T03:51:59;98638.09;;;4.85;62.55
57847;BME280;43675;50.030;21.952;2023-04-29T03:54:26;98643.31;;;4.84;62.61
57847;BME280;43675;50.030;21.952;2023-04-29T03:56:53;98643.17;;;4.81;62.65
57847;BME280;43675;50.030;21.952;2023-04-29T03:59:19;98642.48;;;4.75;62.64
57847;BME280;43675;50.030;21.952;2023-04-29T04:01:46;98645.83;;;4.71;62.73
57847;BME280;43675;50.030;21.952;2023-04-29T04:04:12;98644.41;;;4.67;63.10
57847;BME280;43675;50.030;21.952;2023-04-29T04:06:39;98644.98;;;4.62;63.21
57847;BME280;43675;50.030;21.952;2023-04-29T04:09:05;98645.27;;;4.58;63.43
57847;BME280;43675;50.030;21.952;2023-04-29T04:11:32;98646.36;;;4.55;63.50
57847;BME280;43675;50.030;21.952;2023-04-29T04:13:58;98646.23;;;4.52;63.74
57847;BME280;43675;50.030;21.952;2023-04-29T04:16:25;98650.13;;;4.54;63.91
57847;BME280;43675;50.030;21.952;2023-04-29T04:18:51;98650.73;;;4.58;64.10
57847;BME280;43675;50.030;21.952;2023-04-29T04:21:18;98648.39;;;4.65;64.15
57847;BME280;43675;50.030;21.952;2023-04-29T04:23:44;98651.87;;;4.74;64.44
57847;BME280;43675;50.030;21.952;2023-04-29T04:26:10;98652.52;;;4.84;64.53
57847;BME280;43675;50.030;21.952;2023-04-29T04:28:37;98653.43;;;4.94;64.45
57847;BME280;43675;50.030;21.952;2023-04-29T04:31:04;98651.19;;;5.04;64.34
57847;BME280;43675;50.030;21.952;2023-04-29T04:33:30;98651.73;;;5.13;64.37
57847;BME280;43675;50.030;21.952;2023-04-29T04:35:57;98651.14;;;5.22;64.22
57847;BME280;43675;50.030;21.952;2023-04-29T04:38:23;98651.33;;;5.31;64.18
57847;BME280;43675;50.030;21.952;2023-04-29T04:40:50;98651.52;;;5.40;63.91
57847;BME280;43675;50.030;21.952;2023-04-29T04:43:16;98646.80;;;5.47;63.85
57847;BME280;43675;50.030;21.952;2023-04-29T04:45:43;98644.43;;;5.53;63.82
57847;BME280;43675;50.030;21.952;2023-04-29T04:48:09;98640.65;;;5.59;63.82
57847;BME280;43675;50.030;21.952;2023-04-29T04:50:36;98642.80;;;5.65;63.78
57847;BME280;43675;50.030;21.952;2023-04-29T04:53:02;98644.41;;;5.69;63.71
57847;BME280;43675;50.030;21.952;2023-04-29T04:55:29;98639.98;;;5.73;63.52
57847;BME280;43675;50.030;21.952;2023-04-29T04:57:57;98639.52;;;5.78;63.66
57847;BME280;43675;50.030;21.952;2023-04-29T05:00:23;98636.23;;;5.81;63.78
57847;BME280;43675;50.030;21.952;2023-04-29T05:02:50;98637.49;;;5.84;63.61
57847;BME280;43675;50.030;21.952;2023-04-29T05:05:16;98636.36;;;5.89;63.80
57847;BME280;43675;50.030;21.952;2023-04-29T05:07:43;98633.77;;;5.94;63.63
57847;BME280;43675;50.030;21.952;2023-04-29T05:10:09;98633.51;;;6.01;63.51
57847;BME280;43675;50.030;21.952;2023-04-29T05:12:36;98634.48;;;6.10;63.66
57847;BME280;43675;50.030;21.952;2023-04-29T05:15:03;98634.77;;;6.24;63.81
57847;BME280;43675;50.030;21.952;2023-04-29T05:17:29;98636.80;;;6.43;63.52
57847;BME280;43675;50.030;21.952;2023-04-29T05:19:56;98634.95;;;6.69;63.44
57847;BME280;43675;50.030;21.952;2023-04-29T05:22:22;98638.70;;;7.01;62.98
57847;BME280;43675;50.030;21.952;2023-04-29T05:24:49;98636.73;;;7.32;62.66
57847;BME280;43675;50.030;21.952;2023-04-29T05:27:15;98638.58;;;7.66;62.16
57847;BME280;43675;50.030;21.952;2023-04-29T05:29:42;98636.00;;;8.01;61.83
57847;BME280;43675;50.030;21.952;2023-04-29T05:32:08;98635.95;;;8.35;60.82
57847;BME280;43675;50.030;21.952;2023-04-29T05:34:35;98635.99;;;8.67;60.20
57847;BME280;43675;50.030;21.952;2023-04-29T05:37:01;98639.45;;;8.94;59.52
57847;BME280;43675;50.030;21.952;2023-04-29T05:39:28;98640.40;;;9.19;58.98
57847;BME280;43675;50.030;21.952;2023-04-29T05:41:54;98637.26;;;9.39;58.47
57847;BME280;43675;50.030;21.952;2023-04-29T05:44:21;98637.11;;;9.59;58.03
57847;BME280;43675;50.030;21.952;2023-04-29T05:46:47;98640.83;;;9.77;57.54
57847;BME280;43675;50.030;21.952;2023-04-29T05:49:14;98636.23;;;9.95;57.10
57847;BME280;43675;50.030;21.952;2023-04-29T05:51:40;98638.95;;;10.11;56.63
57847;BME280;43675;50.030;21.952;2023-04-29T05:54:07;98638.58;;;10.27;56.37
57847;BME280;43675;50.030;21.952;2023-04-29T05:56:33;98641.31;;;10.40;55.83
57847;BME280;43675;50.030;21.952;2023-04-29T05:59:00;98644.61;;;10.51;55.36
57847;BME280;43675;50.030;21.952;2023-04-29T06:01:26;98640.54;;;10.62;55.05
57847;BME280;43675;50.030;21.952;2023-04-29T06:03:53;98643.64;;;10.70;54.59
57847;BME280;43675;50.030;21.952;2023-04-29T06:06:19;98640.91;;;10.75;54.33
57847;BME280;43675;50.030;21.952;2023-04-29T06:08:46;98641.00;;;10.82;54.13
57847;BME280;43675;50.030;21.952;2023-04-29T06:11:13;98639.64;;;10.87;53.84
57847;BME280;43675;50.030;21.952;2023-04-29T06:13:39;98639.02;;;10.91;53.58
57847;BME280;43675;50.030;21.952;2023-04-29T06:16:06;98636.14;;;10.97;53.28
57847;BME280;43675;50.030;21.952;2023-04-29T06:18:32;98633.40;;;11.03;53.17
57847;BME280;43675;50.030;21.952;2023-04-29T06:20:59;98632.15;;;11.15;53.05
57847;BME280;43675;50.030;21.952;2023-04-29T06:23:25;98632.27;;;11.25;52.88
57847;BME280;43675;50.030;21.952;2023-04-29T06:25:51;98628.60;;;11.34;52.65
57847;BME280;43675;50.030;21.952;2023-04-29T06:28:18;98632.19;;;11.46;52.56
57847;BME280;43675;50.030;21.952;2023-04-29T06:30:44;98633.90;;;11.54;52.21
57847;BME280;43675;50.030;21.952;2023-04-29T06:33:11;98633.46;;;11.62;51.94
57847;BME280;43675;50.030;21.952;2023-04-29T06:35:38;98633.52;;;11.68;51.58
57847;BME280;43675;50.030;21.952;2023-04-29T06:38:05;98632.91;;;11.75;51.38
57847;BME280;43675;50.030;21.952;2023-04-29T06:40:31;98631.95;;;11.82;51.31
57847;BME280;43675;50.030;21.952;2023-04-29T06:42:58;98631.80;;;11.90;51.09
57847;BME280;43675;50.030;21.952;2023-04-29T06:45:24;98634.02;;;11.95;50.95
57847;BME280;43675;50.030;21.952;2023-04-29T06:47:51;98631.11;;;12.03;50.75
57847;BME280;43675;50.030;21.952;2023-04-29T06:50:17;98628.08;;;12.07;50.61
57847;BME280;43675;50.030;21.952;2023-04-29T06:52:44;98628.29;;;12.11;50.34
57847;BME280;43675;50.030;21.952;2023-04-29T06:55:10;98627.88;;;12.16;50.09
57847;BME280;43675;50.030;21.952;2023-04-29T06:57:37;98625.45;;;12.23;50.03
57847;BME280;43675;50.030;21.952;2023-04-29T07:00:04;98631.46;;;12.31;49.93
57847;BME280;43675;50.030;21.952;2023-04-29T07:02:31;98629.92;;;12.45;49.68
57847;BME280;43675;50.030;21.952;2023-04-29T07:04:57;98630.09;;;12.60;49.64
57847;BME280;43675;50.030;21.952;2023-04-29T07:07:24;98626.73;;;12.80;49.51
57847;BME280;43675;50.030;21.952;2023-04-29T07:09:50;98628.69;;;12.99;48.99
57847;BME280;43675;50.030;21.952;2023-04-29T07:12:17;98630.70;;;13.18;48.79
57847;BME280;43675;50.030;21.952;2023-04-29T07:14:43;98631.30;;;13.38;48.81
57847;BME280;43675;50.030;21.952;2023-04-29T07:17:10;98624.65;;;13.56;48.46
57847;BME280;43675;50.030;21.952;2023-04-29T07:19:36;98623.80;;;13.75;48.12
57847;BME280;43675;50.030;21.952;2023-04-29T07:22:03;98626.08;;;13.95;47.97
57847;BME280;43675;50.030;21.952;2023-04-29T07:24:29;98618.46;;;14.14;47.63
57847;BME280;43675;50.030;21.952;2023-04-29T07:26:56;98619.30;;;14.31;47.43
57847;BME280;43675;50.030;21.952;2023-04-29T07:29:22;98616.54;;;14.45;46.98
57847;BME280;43675;50.030;21.952;2023-04-29T07:31:49;98616.21;;;14.59;46.87
57847;BME280;43675;50.030;21.952;2023-04-29T07:34:15;98612.08;;;14.75;46.56
57847;BME280;43675;50.030;21.952;2023-04-29T07:36:42;98611.48;;;14.93;46.50
57847;BME280;43675;50.030;21.952;2023-04-29T07:39:08;98611.54;;;15.12;46.20
57847;BME280;43675;50.030;21.952;2023-04-29T07:41:35;98613.68;;;15.31;45.90
57847;BME280;43675;50.030;21.952;2023-04-29T07:44:01;98611.91;;;15.51;45.42
57847;BME280;43675;50.030;21.952;2023-04-29T07:46:28;98611.10;;;15.69;45.03
57847;BME280;43675;50.030;21.952;2023-04-29T07:48:54;98607.42;;;15.85;44.78
57847;BME280;43675;50.030;21.952;2023-04-29T07:51:21;98606.54;;;15.99;44.54
57847;BME280;43675;50.030;21.952;2023-04-29T07:53:47;98602.09;;;16.15;44.13
57847;BME280;43675;50.030;21.952;2023-04-29T07:56:14;98605.25;;;16.34;43.75
57847;BME280;43675;50.030;21.952;2023-04-29T07:58:40;98603.21;;;16.51;43.45
57847;BME280;43675;50.030;21.952;2023-04-29T08:01:08;98605.99;;;16.69;43.16
57847;BME280;43675;50.030;21.952;2023-04-29T08:03:35;98600.48;;;16.88;42.87
57847;BME280;43675;50.030;21.952;2023-04-29T08:06:05;98601.20;;;17.13;42.49
57847;BME280;43675;50.030;21.952;2023-04-29T08:08:32;98597.95;;;17.40;42.11
57847;BME280;43675;50.030;21.952;2023-04-29T08:10:58;98596.65;;;17.68;41.75
57847;BME280;43675;50.030;21.952;2023-04-29T08:13:25;98598.33;;;17.98;41.33
57847;BME280;43675;50.030;21.952;2023-04-29T08:15:51;98602.16;;;18.27;40.91
57847;BME280;43675;50.030;21.952;2023-04-29T08:18:18;98596.17;;;18.53;39.99
57847;BME280;43675;50.030;21.952;2023-04-29T08:20:46;98593.63;;;18.74;39.57
57847;BME280;43675;50.030;21.952;2023-04-29T08:23:12;98588.05;;;18.99;39.12
57847;BME280;43675;50.030;21.952;2023-04-29T08:25:42;98590.95;;;19.20;38.88
57847;BME280;43675;50.030;21.952;2023-04-29T08:28:09;98592.21;;;19.45;38.72
57847;BME280;43675;50.030;21.952;2023-04-29T08:30:38;98595.84;;;19.71;38.08
57847;BME280;43675;50.030;21.952;2023-04-29T08:33:05;98599.86;;;19.94;37.31
57847;BME280;43675;50.030;21.952;2023-04-29T08:35:31;98600.56;;;20.15;37.22
57847;BME280;43675;50.030;21.952;2023-04-29T08:37:58;98599.31;;;20.35;36.99
57847;BME280;43675;50.030;21.952;2023-04-29T08:40:24;98598.13;;;20.47;36.23
57847;BME280;43675;50.030;21.952;2023-04-29T08:42:53;98599.50;;;20.52;36.02
57847;BME280;43675;50.030;21.952;2023-04-29T08:45:21;98598.92;;;20.60;35.87
57847;BME280;43675;50.030;21.952;2023-04-29T08:47:50;98598.88;;;20.68;35.48
57847;BME280;43675;50.030;21.952;2023-04-29T08:50:17;98596.27;;;20.75;35.31
57847;BME280;43675;50.030;21.952;2023-04-29T08:52:44;98594.89;;;20.85;35.11
57847;BME280;43675;50.030;21.952;2023-04-29T08:55:11;98599.85;;;20.95;34.97
57847;BME280;43675;50.030;21.952;2023-04-29T08:57:38;98596.52;;;21.03;34.75
57847;BME280;43675;50.030;21.952;2023-04-29T09:00:09;98596.58;;;21.11;34.50
57847;BME280;43675;50.030;21.952;2023-04-29T09:02:46;98597.03;;;21.24;34.20
57847;BME280;43675;50.030;21.952;2023-04-29T09:05:15;98594.45;;;21.47;34.11
57847;BME280;43675;50.030;21.952;2023-04-29T09:07:42;98596.11;;;21.55;33.77
57847;BME280;43675;50.030;21.952;2023-04-29T09:10:09;98593.28;;;21.54;33.52
57847;BME280;43675;50.030;21.952;2023-04-29T09:12:36;98593.40;;;21.48;33.51
57847;BME280;43675;50.030;21.952;2023-04-29T09:15:03;98592.14;;;21.36;33.31
57847;BME280;43675;50.030;21.952;2023-04-29T09:17:50;98595.61;;;21.18;33.42
57847;BME280;43675;50.030;21.952;2023-04-29T09:22:47;98600.86;;;20.81;33.84
57847;BME280;43675;50.030;21.952;2023-04-29T09:25:14;98602.05;;;20.65;33.85
57847;BME280;43675;50.030;21.952;2023-04-29T09:27:41;98600.80;;;20.54;34.04
57847;BME280;43675;50.030;21.952;2023-04-29T09:30:08;98595.38;;;20.49;33.82
57847;BME280;43675;50.030;21.952;2023-04-29T09:32:35;98593.13;;;20.52;34.04
57847;BME280;43675;50.030;21.952;2023-04-29T09:35:20;98590.58;;;20.58;34.12
57847;BME280;43675;50.030;21.952;2023-04-29T09:37:47;98588.63;;;20.68;34.09
57847;BME280;43675;50.030;21.952;2023-04-29T09:40:33;98588.95;;;20.76;33.91
57847;BME280;43675;50.030;21.952;2023-04-29T09:43:00;98583.68;;;20.81;33.79
57847;BME280;43675;50.030;21.952;2023-04-29T09:45:37;98579.98;;;20.96;33.48
57847;BME280;43675;50.030;21.952;2023-04-29T09:48:05;98579.31;;;21.16;33.72
57847;BME280;43675;50.030;21.952;2023-04-29T09:50:32;98575.44;;;21.22;33.34
57847;BME280;43675;50.030;21.952;2023-04-29T09:52:58;98572.92;;;21.35;33.33
57847;BME280;43675;50.030;21.952;2023-04-29T09:55:25;98571.75;;;21.50;32.98
57847;BME280;43675;50.030;21.952;2023-04-29T09:57:52;98558.13;;;21.58;32.65
57847;BME280;43675;50.030;21.952;2023-04-29T10:00:19;98565.02;;;21.46;32.60
57847;BME280;43675;50.030;21.952;2023-04-29T10:02:47;98559.73;;;21.34;32.84
57847;BME280;43675;50.030;21.952;2023-04-29T10:05:14;98558.14;;;21.16;33.00
57847;BME280;43675;50.030;21.952;2023-04-29T10:07:41;98557.65;;;21.04;33.28
57847;BME280;43675;50.030;21.952;2023-04-29T10:10:09;98558.11;;;20.95;33.02
57847;BME280;43675;50.030;21.952;2023-04-29T10:12:36;98555.54;;;20.90;32.97
57847;BME280;43675;50.030;21.952;2023-04-29T10:15:32;98549.30;;;20.83;32.89
57847;BME280;43675;50.030;21.952;2023-04-29T10:18:20;98545.27;;;20.82;33.14
57847;BME280;43675;50.030;21.952;2023-04-29T10:20:47;98543.18;;;20.70;32.90
57847;BME280;43675;50.030;21.952;2023-04-29T10:23:14;98543.16;;;20.56;33.20
57847;BME280;43675;50.030;21.952;2023-04-29T10:25:43;98537.82;;;20.56;33.49
57847;BME280;43675;50.030;21.952;2023-04-29T10:28:14;98535.85;;;20.64;33.34
57847;BME280;43675;50.030;21.952;2023-04-29T10:30:43;98531.61;;;20.79;33.57
57847;BME280;43675;50.030;21.952;2023-04-29T10:33:10;98536.22;;;20.89;33.45
57847;BME280;43675;50.030;21.952;2023-04-29T10:35:37;98535.93;;;20.99;33.04
57847;BME280;43675;50.030;21.952;2023-04-29T10:40:49;98531.84;;;21.19;32.87
57847;BME280;43675;50.030;21.952;2023-04-29T10:43:22;98528.77;;;21.24;33.08
57847;BME280;43675;50.030;21.952;2023-04-29T10:45:49;98526.13;;;21.25;32.84
57847;BME280;43675;50.030;21.952;2023-04-29T10:48:36;98515.65;;;21.25;32.39
57847;BME280;43675;50.030;21.952;2023-04-29T10:51:03;98524.64;;;21.20;32.39
57847;BME280;43675;50.030;21.952;2023-04-29T10:53:29;98518.12;;;21.17;32.32
57847;BME280;43675;50.030;21.952;2023-04-29T10:56:04;98508.86;;;21.15;32.40
57847;BME280;43675;50.030;21.952;2023-04-29T11:00:59;98506.39;;;21.07;32.35
57847;BME280;43675;50.030;21.952;2023-04-29T11:06:11;98504.73;;;21.11;33.10
57847;BME280;43675;50.030;21.952;2023-04-29T11:08:38;98504.58;;;21.17;32.74
57847;BME280;43675;50.030;21.952;2023-04-29T11:11:05;98497.64;;;21.19;32.44
57847;BME280;43675;50.030;21.952;2023-04-29T11:13:37;98500.46;;;21.13;32.43
57847;BME280;43675;50.030;21.952;2023-04-29T11:18:32;98497.16;;;20.95;32.35
57847;BME280;43675;50.030;21.952;2023-04-29T11:23:35;98496.60;;;20.76;32.39
57847;BME280;43675;50.030;21.952;2023-04-29T11:26:02;98497.88;;;20.59;32.74
57847;BME280;43675;50.030;21.952;2023-04-29T11:28:30;98501.86;;;20.42;32.81
57847;BME280;43675;50.030;21.952;2023-04-29T11:30:57;98501.33;;;20.27;32.90
57847;BME280;43675;50.030;21.952;2023-04-29T11:33:25;98501.48;;;20.19;32.96
57847;BME280;43675;50.030;21.952;2023-04-29T11:35:55;98497.90;;;20.15;33.05
57847;BME280;43675;50.030;21.952;2023-04-29T11:38:27;98495.39;;;20.17;33.05
57847;BME280;43675;50.030;21.952;2023-04-29T11:40:54;98493.00;;;20.25;33.14
57847;BME280;43675;50.030;21.952;2023-04-29T11:43:22;98488.30;;;20.40;33.28
57847;BME280;43675;50.030;21.952;2023-04-29T11:45:50;98491.13;;;20.57;33.04
57847;BME280;43675;50.030;21.952;2023-04-29T11:50:49;98486.58;;;20.88;32.48
57847;BME280;43675;50.030;21.952;2023-04-29T11:53:20;98489.40;;;20.97;32.44
57847;BME280;43675;50.030;21.952;2023-04-29T11:55:47;98485.45;;;21.04;32.47
57847;BME280;43675;50.030;21.952;2023-04-29T11:58:14;98485.45;;;21.14;32.56
57847;BME280;43675;50.030;21.952;2023-04-29T12:00:41;98483.73;;;21.22;32.24
57847;BME280;43675;50.030;21.952;2023-04-29T12:03:14;98483.77;;;21.26;32.04
57847;BME280;43675;50.030;21.952;2023-04-29T12:05:49;98482.24;;;21.35;32.31
57847;BME280;43675;50.030;21.952;2023-04-29T12:08:34;98479.77;;;21.47;32.65
57847;BME280;43675;50.030;21.952;2023-04-29T12:11:01;98479.55;;;21.57;32.09
57847;BME280;43675;50.030;21.952;2023-04-29T12:13:29;98468.05;;;21.60;31.87
57847;BME280;43675;50.030;21.952;2023-04-29T12:15:56;98487.94;;;21.44;31.65
57847;BME280;43675;50.030;21.952;2023-04-29T12:18:24;98480.55;;;21.36;31.63
57847;BME280;43675;50.030;21.952;2023-04-29T12:20:51;98482.68;;;21.35;31.54
57847;BME280;43675;50.030;21.952;2023-04-29T12:23:20;98486.13;;;21.35;31.58
57847;BME280;43675;50.030;21.952;2023-04-29T12:25:51;98484.37;;;21.35;31.36
57847;BME280;43675;50.030;21.952;2023-04-29T12:28:18;98476.92;;;21.42;31.26
57847;BME280;43675;50.030;21.952;2023-04-29T12:30:52;98473.66;;;21.51;31.16
57847;BME280;43675;50.030;21.952;2023-04-29T12:33:20;98475.55;;;21.68;30.94
57847;BME280;43675;50.030;21.952;2023-04-29T12:35:48;98468.09;;;21.89;30.92
57847;BME280;43675;50.030;21.952;2023-04-29T12:38:19;98471.19;;;22.08;30.70
57847;BME280;43675;50.030;21.952;2023-04-29T12:40:47;98465.67;;;22.31;30.45
57847;BME280;43675;50.030;21.952;2023-04-29T12:43:13;98460.75;;;22.46;29.99
57847;BME280;43675;50.030;21.952;2023-04-29T12:45:40;98461.54;;;22.52;30.09
57847;BME280;43675;50.030;21.952;2023-04-29T12:48:06;98460.15;;;22.63;29.89
57847;BME280;43675;50.030;21.952;2023-04-29T12:50:38;98462.80;;;22.77;29.75
57847;BME280;43675;50.030;21.952;2023-04-29T12:53:05;98462.70;;;22.89;29.60
57847;BME280;43675;50.030;21.952;2023-04-29T12:55:33;98459.80;;;23.05;29.31
57847;BME280;43675;50.030;21.952;2023-04-29T12:58:01;98457.80;;;23.14;29.05
57847;BME280;43675;50.030;21.952;2023-04-29T13:00:28;98459.52;;;23.12;29.11
57847;BME280;43675;50.030;21.952;2023-04-29T13:02:54;98458.90;;;23.09;28.90
57847;BME280;43675;50.030;21.952;2023-04-29T13:05:21;98454.20;;;23.12;29.13
57847;BME280;43675;50.030;21.952;2023-04-29T13:07:48;98453.77;;;23.18;28.84
57847;BME280;43675;50.030;21.952;2023-04-29T13:10:15;98447.64;;;23.27;28.92
57847;BME280;43675;50.030;21.952;2023-04-29T13:12:42;98443.68;;;23.36;28.61
57847;BME280;43675;50.030;21.952;2023-04-29T13:15:09;98445.95;;;23.48;28.83
57847;BME280;43675;50.030;21.952;2023-04-29T13:17:36;98450.19;;;23.61;28.52
57847;BME280;43675;50.030;21.952;2023-04-29T13:20:03;98444.63;;;23.65;28.09
57847;BME280;43675;50.030;21.952;2023-04-29T13:22:31;98447.30;;;23.71;28.05